Дата Пункты Температура Давл., мм. Влажн., % Ветер Погодные явления
Воздуха Воды Направл. Скорость
11.07.19 09:00 Одесса 19.0 17.0 753 61 Пн-З 1 09 ГОДИН
11.07.19 06:00 Одесса 16.0 18.0 753 73 Пн-З 2 06 ГОДИН
11.07.19 03:00 Одесса 16.0 18.0 753 90 З 1 03 ГОДИНИ
10.07.19 09:00 Одесса 22.0 18.0 752 53 Пд-З 1 21 ГОДИНУ
10.07.19 06:00 Одесса 25.0 18.0 752 31 З 2 18 ГОДИН
10.07.19 03:00 Одесса 22.0 18.0 753 53 Пд 3 15 ГОДИН
10.07.19 12:00 Одесса 22.0 18.0 754 44 Пд-С 3 12 ГОДИН
10.07.19 09:00 Одесса 20.0 18.0 754 55 Пн-С 2 09 ГОДИН
10.07.19 06:00 Одесса 16.0 19.0 754 66 Пн-З 1 06 ГОДИН
10.07.19 03:00 Одесса 18.0 19.0 754 52 Пн-З 1 03 ГОДИНИ
09.07.19 09:00 Одесса 20.0 19.0 755 59 Пд-З 1 21 ГОДИНУ
09.07.19 06:00 Одесса 23.0 19.0 755 47 Пд 2 18 ГОДИН
09.07.19 03:00 Одесса 22.0 19.0 756 47 Пд 3 15 ГОДИН
09.07.19 12:00 Одесса 23.0 20.0 756 41 Пд-С 2 12 ГОДИН
09.07.19 09:00 Одесса 23.0 20.0 757 39 Пн-З 1 09 ГОДИН
09.07.19 06:00 Одесса 17.0 20.0 756 63 Пн-З 1 06 ГОДИН
09.07.19 03:00 Одесса 18.0 20.0 755 56 З 2 03 ГОДИНИ
08.07.19 09:00 Одесса 22.0 19.0 754 55 Пн-З 1 21 ГОДИНУ
08.07.19 06:00 Одесса 24.0 19.0 752 54 Пн-З 2 18 ГОДИН
08.07.19 03:00 Одесса 24.0 19.0 752 64 Пн-З 2 15 ГОДИН
Количество строк
1 2 3 4 5 6 7 8 9 10
Page 4 of 511